sensor_id;sensor_type;location;lat;lon;timestamp;temperature;humidity
20722;DHT22;10522;52.198;9.890;2023-02-28T00:00:32;-0.20;99.90
20722;DHT22;10522;52.198;9.890;2023-02-28T00:02:58;-0.20;99.90
20722;DHT22;10522;52.198;9.890;2023-02-28T00:05:24;-0.20;99.90
20722;DHT22;10522;52.198;9.890;2023-02-28T00:07:51;-0.20;99.90
20722;DHT22;10522;52.198;9.890;2023-02-28T00:10:35;-0.20;99.90
20722;DHT22;10522;52.198;9.890;2023-02-28T00:13:03;-0.20;99.90
20722;DHT22;10522;52.198;9.890;2023-02-28T00:15:30;-0.20;99.90
20722;DHT22;10522;52.198;9.890;2023-02-28T00:17:56;-0.20;99.90
20722;DHT22;10522;52.198;9.890;2023-02-28T00:20:22;-0.20;99.90
20722;DHT22;10522;52.198;9.890;2023-02-28T00:22:49;-0.30;99.90
20722;DHT22;10522;52.198;9.890;2023-02-28T00:25:18;-0.40;99.90
20722;DHT22;10522;52.198;9.890;2023-02-28T00:27:45;-0.40;99.90
20722;DHT22;10522;52.198;9.890;2023-02-28T00:30:13;-0.50;99.90
20722;DHT22;10522;52.198;9.890;2023-02-28T00:32:39;-0.50;99.90
20722;DHT22;10522;52.198;9.890;2023-02-28T00:35:05;-0.60;99.90
20722;DHT22;10522;52.198;9.890;2023-02-28T00:37:31;-0.60;99.90
20722;DHT22;10522;52.198;9.890;2023-02-28T00:39:57;-0.70;99.90
20722;DHT22;10522;52.198;9.890;2023-02-28T00:42:23;-0.80;99.90
20722;DHT22;10522;52.198;9.890;2023-02-28T00:44:49;-0.90;99.90
20722;DHT22;10522;52.198;9.890;2023-02-28T00:47:15;-0.90;99.90
20722;DHT22;10522;52.198;9.890;2023-02-28T00:49:41;-1.00;99.90
20722;DHT22;10522;52.198;9.890;2023-02-28T00:52:07;-1.10;99.90
20722;DHT22;10522;52.198;9.890;2023-02-28T00:54:32;-1.10;99.90
20722;DHT22;10522;52.198;9.890;2023-02-28T00:56:58;-1.10;99.90
20722;DHT22;10522;52.198;9.890;2023-02-28T00:59:24;-1.20;99.90
20722;DHT22;10522;52.198;9.890;2023-02-28T01:01:50;-1.30;99.90
20722;DHT22;10522;52.198;9.890;2023-02-28T01:04:15;-1.30;99.90
20722;DHT22;10522;52.198;9.890;2023-02-28T01:06:41;-1.40;99.90
20722;DHT22;10522;52.198;9.890;2023-02-28T01:09:07;-1.50;99.90
20722;DHT22;10522;52.198;9.890;2023-02-28T01:11:34;-1.50;99.90
20722;DHT22;10522;52.198;9.890;2023-02-28T01:14:00;-1.60;99.90
20722;DHT22;10522;52.198;9.890;2023-02-28T01:16:26;-1.60;99.90
20722;DHT22;10522;52.198;9.890;2023-02-28T01:18:52;-1.70;99.90
20722;DHT22;10522;52.198;9.890;2023-02-28T01:21:20;-1.70;99.90
20722;DHT22;10522;52.198;9.890;2023-02-28T01:23:46;-1.70;99.90
20722;DHT22;10522;52.198;9.890;2023-02-28T01:26:18;-1.80;99.90
20722;DHT22;10522;52.198;9.890;2023-02-28T01:28:44;-1.80;99.90
20722;DHT22;10522;52.198;9.890;2023-02-28T01:31:10;-1.90;99.90
20722;DHT22;10522;52.198;9.890;2023-02-28T01:33:36;-1.90;99.90
20722;DHT22;10522;52.198;9.890;2023-02-28T01:36:05;-2.00;99.90
20722;DHT22;10522;52.198;9.890;2023-02-28T01:38:32;-2.00;99.90
20722;DHT22;10522;52.198;9.890;2023-02-28T01:40:58;-2.10;99.90
20722;DHT22;10522;52.198;9.890;2023-02-28T01:43:26;-2.10;99.90
20722;DHT22;10522;52.198;9.890;2023-02-28T01:45:54;-2.10;99.90
20722;DHT22;10522;52.198;9.890;2023-02-28T01:48:25;-2.10;99.90
20722;DHT22;10522;52.198;9.890;2023-02-28T01:50:52;-2.10;99.90
20722;DHT22;10522;52.198;9.890;2023-02-28T01:53:23;-2.10;99.90
20722;DHT22;10522;52.198;9.890;2023-02-28T01:55:51;-2.10;99.90
20722;DHT22;10522;52.198;9.890;2023-02-28T01:58:17;-2.10;99.90
20722;DHT22;10522;52.198;9.890;2023-02-28T02:00:43;-2.10;99.90
20722;DHT22;10522;52.198;9.890;2023-02-28T02:03:12;-2.20;99.90
20722;DHT22;10522;52.198;9.890;2023-02-28T02:05:39;-2.20;99.90
20722;DHT22;10522;52.198;9.890;2023-02-28T02:08:08;-2.30;99.90
20722;DHT22;10522;52.198;9.890;2023-02-28T02:10:55;-2.40;99.90
20722;DHT22;10522;52.198;9.890;2023-02-28T02:35:14;-2.60;99.90
20722;DHT22;10522;52.198;9.890;2023-02-28T02:37:52;-2.60;99.90
20722;DHT22;10522;52.198;9.890;2023-02-28T02:40:58;-2.60;99.90
20722;DHT22;10522;52.198;9.890;2023-02-28T02:43:35;-2.60;99.90
20722;DHT22;10522;52.198;9.890;2023-02-28T02:46:06;-2.60;99.90
20722;DHT22;10522;52.198;9.890;2023-02-28T02:48:38;-2.70;99.90
20722;DHT22;10522;52.198;9.890;2023-02-28T02:51:10;-2.60;99.90
20722;DHT22;10522;52.198;9.890;2023-02-28T02:53:52;-2.50;99.90
20722;DHT22;10522;52.198;9.890;2023-02-28T02:56:22;-2.50;99.90
20722;DHT22;10522;52.198;9.890;2023-02-28T02:58:51;-2.50;99.90
20722;DHT22;10522;52.198;9.890;2023-02-28T03:01:22;-2.50;99.90
20722;DHT22;10522;52.198;9.890;2023-02-28T03:03:59;-2.50;99.90
20722;DHT22;10522;52.198;9.890;2023-02-28T03:06:26;-2.50;99.90
20722;DHT22;10522;52.198;9.890;2023-02-28T03:08:52;-2.60;99.90
20722;DHT22;10522;52.198;9.890;2023-02-28T03:11:18;-2.60;99.90
20722;DHT22;10522;52.198;9.890;2023-02-28T03:16:43;-2.60;99.90
20722;DHT22;10522;52.198;9.890;2023-02-28T03:30:22;-2.60;99.90
20722;DHT22;10522;52.198;9.890;2023-02-28T03:32:51;-2.60;99.90
20722;DHT22;10522;52.198;9.890;2023-02-28T03:35:34;-2.50;99.90
20722;DHT22;10522;52.198;9.890;2023-02-28T03:38:13;-2.50;99.90
20722;DHT22;10522;52.198;9.890;2023-02-28T03:40:45;-2.50;99.90
20722;DHT22;10522;52.198;9.890;2023-02-28T03:43:15;-2.60;99.90
20722;DHT22;10522;52.198;9.890;2023-02-28T03:45:44;-2.60;99.90
20722;DHT22;10522;52.198;9.890;2023-02-28T03:48:17;-2.60;99.90
20722;DHT22;10522;52.198;9.890;2023-02-28T03:50:47;-2.50;99.90
20722;DHT22;10522;52.198;9.890;2023-02-28T03:53:23;-2.50;99.90
20722;DHT22;10522;52.198;9.890;2023-02-28T03:56:01;-2.50;99.90
20722;DHT22;10522;52.198;9.890;2023-02-28T04:01:08;-2.40;99.90
20722;DHT22;10522;52.198;9.890;2023-02-28T04:03:36;-2.40;99.90
20722;DHT22;10522;52.198;9.890;2023-02-28T04:06:02;-2.50;99.90
20722;DHT22;10522;52.198;9.890;2023-02-28T04:08:27;-2.50;99.90
20722;DHT22;10522;52.198;9.890;2023-02-28T04:10:58;-2.50;99.90
20722;DHT22;10522;52.198;9.890;2023-02-28T04:13:25;-2.60;99.90
20722;DHT22;10522;52.198;9.890;2023-02-28T04:15:51;-2.80;99.90
20722;DHT22;10522;52.198;9.890;2023-02-28T04:18:16;-2.80;99.90
20722;DHT22;10522;52.198;9.890;2023-02-28T04:20:42;-2.90;99.90
20722;DHT22;10522;52.198;9.890;2023-02-28T04:23:08;-3.00;99.90
20722;DHT22;10522;52.198;9.890;2023-02-28T04:25:33;-3.00;99.90
20722;DHT22;10522;52.198;9.890;2023-02-28T04:27:59;-3.00;99.90
20722;DHT22;10522;52.198;9.890;2023-02-28T04:30:24;-3.00;99.90
20722;DHT22;10522;52.198;9.890;2023-02-28T04:32:50;-3.00;99.90
20722;DHT22;10522;52.198;9.890;2023-02-28T04:35:16;-2.90;99.90
20722;DHT22;10522;52.198;9.890;2023-02-28T04:37:41;-2.90;99.90
20722;DHT22;10522;52.198;9.890;2023-02-28T04:40:07;-2.80;99.90
20722;DHT22;10522;52.198;9.890;2023-02-28T04:42:33;-2.60;99.90
20722;DHT22;10522;52.198;9.890;2023-02-28T04:45:03;-2.50;99.90
20722;DHT22;10522;52.198;9.890;2023-02-28T04:47:28;-2.50;99.90
20722;DHT22;10522;52.198;9.890;2023-02-28T04:49:54;-2.50;99.90
20722;DHT22;10522;52.198;9.890;2023-02-28T04:52:20;-2.40;99.90
20722;DHT22;10522;52.198;9.890;2023-02-28T04:54:45;-2.30;99.90
20722;DHT22;10522;52.198;9.890;2023-02-28T04:57:11;-2.20;99.90
20722;DHT22;10522;52.198;9.890;2023-02-28T04:59:36;-2.10;99.90
20722;DHT22;10522;52.198;9.890;2023-02-28T05:02:03;-2.10;99.90
20722;DHT22;10522;52.198;9.890;2023-02-28T05:04:33;-2.10;99.90
20722;DHT22;10522;52.198;9.890;2023-02-28T05:07:00;-2.10;99.90
20722;DHT22;10522;52.198;9.890;2023-02-28T05:09:25;-2.10;99.90
20722;DHT22;10522;52.198;9.890;2023-02-28T05:11:51;-2.10;99.90
20722;DHT22;10522;52.198;9.890;2023-02-28T05:14:16;-2.10;99.90
20722;DHT22;10522;52.198;9.890;2023-02-28T05:16:42;-2.10;99.90
20722;DHT22;10522;52.198;9.890;2023-02-28T05:19:09;-2.10;99.90
20722;DHT22;10522;52.198;9.890;2023-02-28T05:21:38;-2.00;99.90
20722;DHT22;10522;52.198;9.890;2023-02-28T05:24:08;-2.00;99.90
20722;DHT22;10522;52.198;9.890;2023-02-28T05:26:36;-2.10;99.90
20722;DHT22;10522;52.198;9.890;2023-02-28T05:29:02;-2.10;99.90
20722;DHT22;10522;52.198;9.890;2023-02-28T05:31:27;-2.10;99.90
20722;DHT22;10522;52.198;9.890;2023-02-28T05:33:53;-2.20;99.90
20722;DHT22;10522;52.198;9.890;2023-02-28T05:36:20;-2.20;99.90
20722;DHT22;10522;52.198;9.890;2023-02-28T05:38:47;-2.30;99.90
20722;DHT22;10522;52.198;9.890;2023-02-28T05:41:13;-2.30;99.90
20722;DHT22;10522;52.198;9.890;2023-02-28T05:43:39;-2.40;99.90
20722;DHT22;10522;52.198;9.890;2023-02-28T05:46:10;-2.50;99.90
20722;DHT22;10522;52.198;9.890;2023-02-28T05:48:36;-2.50;99.90
20722;DHT22;10522;52.198;9.890;2023-02-28T05:51:03;-2.70;99.90
20722;DHT22;10522;52.198;9.890;2023-02-28T05:53:30;-2.80;99.90
20722;DHT22;10522;52.198;9.890;2023-02-28T05:55:55;-2.80;99.90
20722;DHT22;10522;52.198;9.890;2023-02-28T05:58:21;-2.90;99.90
20722;DHT22;10522;52.198;9.890;2023-02-28T06:00:47;-2.90;99.90
20722;DHT22;10522;52.198;9.890;2023-02-28T06:03:13;-2.80;99.90
20722;DHT22;10522;52.198;9.890;2023-02-28T06:05:39;-2.90;99.90
20722;DHT22;10522;52.198;9.890;2023-02-28T06:08:05;-3.00;99.90
20722;DHT22;10522;52.198;9.890;2023-02-28T06:10:33;-3.10;99.90
20722;DHT22;10522;52.198;9.890;2023-02-28T06:13:03;-3.10;99.90
20722;DHT22;10522;52.198;9.890;2023-02-28T06:15:29;-3.20;99.90
20722;DHT22;10522;52.198;9.890;2023-02-28T06:17:55;-3.20;99.90
20722;DHT22;10522;52.198;9.890;2023-02-28T06:20:23;-3.20;99.90
20722;DHT22;10522;52.198;9.890;2023-02-28T06:22:48;-3.20;99.90
20722;DHT22;10522;52.198;9.890;2023-02-28T06:25:16;-3.20;99.90
20722;DHT22;10522;52.198;9.890;2023-02-28T06:27:42;-3.20;99.90
20722;DHT22;10522;52.198;9.890;2023-02-28T06:30:09;-3.10;99.90
20722;DHT22;10522;52.198;9.890;2023-02-28T06:32:35;-3.10;99.90
20722;DHT22;10522;52.198;9.890;2023-02-28T06:35:01;-3.10;99.90
20722;DHT22;10522;52.198;9.890;2023-02-28T06:37:27;-3.00;99.90
20722;DHT22;10522;52.198;9.890;2023-02-28T06:39:54;-3.00;99.90
20722;DHT22;10522;52.198;9.890;2023-02-28T06:42:22;-2.90;99.90
20722;DHT22;10522;52.198;9.890;2023-02-28T06:44:48;-2.80;99.90
20722;DHT22;10522;52.198;9.890;2023-02-28T06:47:13;-2.80;99.90
20722;DHT22;10522;52.198;9.890;2023-02-28T06:49:39;-2.80;99.90
20722;DHT22;10522;52.198;9.890;2023-02-28T06:52:05;-2.70;99.90
20722;DHT22;10522;52.198;9.890;2023-02-28T06:54:30;-2.60;99.90
20722;DHT22;10522;52.198;9.890;2023-02-28T06:56:57;-2.60;99.90
20722;DHT22;10522;52.198;9.890;2023-02-28T06:59:23;-2.50;99.90
20722;DHT22;10522;52.198;9.890;2023-02-28T07:01:49;-2.50;99.90
20722;DHT22;10522;52.198;9.890;2023-02-28T07:04:14;-2.50;99.90
20722;DHT22;10522;52.198;9.890;2023-02-28T07:06:40;-2.40;99.90
20722;DHT22;10522;52.198;9.890;2023-02-28T07:09:06;-2.30;99.90
20722;DHT22;10522;52.198;9.890;2023-02-28T07:11:31;-2.30;99.90
20722;DHT22;10522;52.198;9.890;2023-02-28T07:13:57;-2.20;99.90
20722;DHT22;10522;52.198;9.890;2023-02-28T07:16:24;-2.20;99.90
20722;DHT22;10522;52.198;9.890;2023-02-28T07:18:52;-2.10;99.90
20722;DHT22;10522;52.198;9.890;2023-02-28T07:21:18;-2.00;99.90
20722;DHT22;10522;52.198;9.890;2023-02-28T07:23:44;-1.90;99.90
20722;DHT22;10522;52.198;9.890;2023-02-28T07:26:13;-1.70;99.90
20722;DHT22;10522;52.198;9.890;2023-02-28T07:28:41;-1.60;99.90
20722;DHT22;10522;52.198;9.890;2023-02-28T07:31:09;-1.60;99.90
20722;DHT22;10522;52.198;9.890;2023-02-28T07:33:35;-1.70;99.90
20722;DHT22;10522;52.198;9.890;2023-02-28T07:36:05;-1.60;99.90
20722;DHT22;10522;52.198;9.890;2023-02-28T07:38:33;-1.60;99.90
20722;DHT22;10522;52.198;9.890;2023-02-28T07:40:59;-1.50;99.90
20722;DHT22;10522;52.198;9.890;2023-02-28T07:43:25;-1.60;99.90
20722;DHT22;10522;52.198;9.890;2023-02-28T07:45:50;-1.60;99.90
20722;DHT22;10522;52.198;9.890;2023-02-28T07:48:16;-1.50;99.90
20722;DHT22;10522;52.198;9.890;2023-02-28T07:50:44;-1.50;99.90
20722;DHT22;10522;52.198;9.890;2023-02-28T07:53:13;-1.50;99.90
20722;DHT22;10522;52.198;9.890;2023-02-28T07:55:39;-1.50;99.90
20722;DHT22;10522;52.198;9.890;2023-02-28T07:58:07;-1.40;99.90
20722;DHT22;10522;52.198;9.890;2023-02-28T08:00:34;-1.30;99.90
20722;DHT22;10522;52.198;9.890;2023-02-28T08:02:59;-1.20;99.90
20722;DHT22;10522;52.198;9.890;2023-02-28T08:05:25;-1.20;99.90
20722;DHT22;10522;52.198;9.890;2023-02-28T08:07:51;-1.10;99.90
20722;DHT22;10522;52.198;9.890;2023-02-28T08:10:16;-1.00;99.90
20722;DHT22;10522;52.198;9.890;2023-02-28T08:12:42;-0.90;99.90
20722;DHT22;10522;52.198;9.890;2023-02-28T08:15:08;-0.90;99.90
20722;DHT22;10522;52.198;9.890;2023-02-28T08:17:34;-0.80;99.90
20722;DHT22;10522;52.198;9.890;2023-02-28T08:19:59;-0.70;99.90
20722;DHT22;10522;52.198;9.890;2023-02-28T08:22:25;-0.70;99.90
20722;DHT22;10522;52.198;9.890;2023-02-28T08:24:50;-0.50;99.90
20722;DHT22;10522;52.198;9.890;2023-02-28T08:27:16;-0.50;99.90
20722;DHT22;10522;52.198;9.890;2023-02-28T08:29:42;-0.30;99.90
20722;DHT22;10522;52.198;9.890;2023-02-28T08:32:08;-0.20;99.90
20722;DHT22;10522;52.198;9.890;2023-02-28T08:34:33;-0.10;99.90
20722;DHT22;10522;52.198;9.890;2023-02-28T08:36:59;0.00;99.90
20722;DHT22;10522;52.198;9.890;2023-02-28T08:39:25;0.10;99.90
20722;DHT22;10522;52.198;9.890;2023-02-28T08:41:51;0.20;99.90
20722;DHT22;10522;52.198;9.890;2023-02-28T08:44:16;0.30;99.90
20722;DHT22;10522;52.198;9.890;2023-02-28T08:46:42;0.40;99.90
20722;DHT22;10522;52.198;9.890;2023-02-28T08:49:10;0.40;99.90
20722;DHT22;10522;52.198;9.890;2023-02-28T08:51:36;0.60;99.90
20722;DHT22;10522;52.198;9.890;2023-02-28T08:54:01;0.70;99.90
20722;DHT22;10522;52.198;9.890;2023-02-28T08:56:28;0.70;99.90
20722;DHT22;10522;52.198;9.890;2023-02-28T08:58:55;0.90;99.90
20722;DHT22;10522;52.198;9.890;2023-02-28T09:01:24;0.90;99.90
20722;DHT22;10522;52.198;9.890;2023-02-28T09:03:50;0.90;99.90
20722;DHT22;10522;52.198;9.890;2023-02-28T09:06:18;1.00;99.90
20722;DHT22;10522;52.198;9.890;2023-02-28T09:08:44;1.10;99.90
20722;DHT22;10522;52.198;9.890;2023-02-28T09:11:10;1.20;99.90
20722;DHT22;10522;52.198;9.890;2023-02-28T09:13:36;1.20;99.90
20722;DHT22;10522;52.198;9.890;2023-02-28T09:16:03;1.30;99.90
20722;DHT22;10522;52.198;9.890;2023-02-28T09:18:30;1.40;99.90
20722;DHT22;10522;52.198;9.890;2023-02-28T09:20:55;1.50;99.90
20722;DHT22;10522;52.198;9.890;2023-02-28T09:23:21;1.60;99.90
20722;DHT22;10522;52.198;9.890;2023-02-28T09:25:48;1.60;99.90
20722;DHT22;10522;52.198;9.890;2023-02-28T09:28:14;1.60;99.90
20722;DHT22;10522;52.198;9.890;2023-02-28T09:30:49;1.70;99.90
20722;DHT22;10522;52.198;9.890;2023-02-28T09:33:16;1.90;99.90
20722;DHT22;10522;52.198;9.890;2023-02-28T09:35:42;1.90;99.90
20722;DHT22;10522;52.198;9.890;2023-02-28T09:38:09;2.10;99.90
20722;DHT22;10522;52.198;9.890;2023-02-28T09:40:45;2.10;99.90
20722;DHT22;10522;52.198;9.890;2023-02-28T09:43:14;2.20;99.90
20722;DHT22;10522;52.198;9.890;2023-02-28T09:45:42;2.30;99.90
20722;DHT22;10522;52.198;9.890;2023-02-28T09:48:24;2.40;99.90
20722;DHT22;10522;52.198;9.890;2023-02-28T09:51:04;2.40;99.90
20722;DHT22;10522;52.198;9.890;2023-02-28T09:53:35;2.60;99.90
20722;DHT22;10522;52.198;9.890;2023-02-28T09:56:10;2.60;99.90
20722;DHT22;10522;52.198;9.890;2023-02-28T10:01:58;2.60;99.90
20722;DHT22;10522;52.198;9.890;2023-02-28T10:04:51;2.80;99.90
20722;DHT22;10522;52.198;9.890;2023-02-28T10:07:55;3.00;99.90
20722;DHT22;10522;52.198;9.890;2023-02-28T10:10:32;3.00;99.90
20722;DHT22;10522;52.198;9.890;2023-02-28T10:13:01;3.20;99.90
20722;DHT22;10522;52.198;9.890;2023-02-28T10:15:31;3.30;99.90
20722;DHT22;10522;52.198;9.890;2023-02-28T10:18:02;3.10;99.90
20722;DHT22;10522;52.198;9.890;2023-02-28T10:20:32;3.20;99.90
20722;DHT22;10522;52.198;9.890;2023-02-28T10:25:34;3.30;99.90
20722;DHT22;10522;52.198;9.890;2023-02-28T10:30:36;3.60;99.90
20722;DHT22;10522;52.198;9.890;2023-02-28T10:33:03;3.60;99.90
20722;DHT22;10522;52.198;9.890;2023-02-28T10:35:28;3.70;99.90
20722;DHT22;10522;52.198;9.890;2023-02-28T10:37:57;3.80;99.90
20722;DHT22;10522;52.198;9.890;2023-02-28T10:45:21;4.10;99.90
20722;DHT22;10522;52.198;9.890;2023-02-28T10:47:49;4.10;99.90
20722;DHT22;10522;52.198;9.890;2023-02-28T10:53:37;4.40;99.90
20722;DHT22;10522;52.198;9.890;2023-02-28T10:59:03;4.40;99.90
20722;DHT22;10522;52.198;9.890;2023-02-28T11:01:39;4.30;99.90
20722;DHT22;10522;52.198;9.890;2023-02-28T11:06:45;4.70;99.90
20722;DHT22;10522;52.198;9.890;2023-02-28T11:11:54;4.70;99.90
20722;DHT22;10522;52.198;9.890;2023-02-28T11:14:24;5.10;99.90
20722;DHT22;10522;52.198;9.890;2023-02-28T11:16:51;5.00;99.90
20722;DHT22;10522;52.198;9.890;2023-02-28T11:19:25;4.90;99.90
20722;DHT22;10522;52.198;9.890;2023-02-28T11:21:59;5.00;99.90
20722;DHT22;10522;52.198;9.890;2023-02-28T11:24:32;5.10;99.90
20722;DHT22;10522;52.198;9.890;2023-02-28T11:26:59;5.50;99.90
20722;DHT22;10522;52.198;9.890;2023-02-28T11:29:27;6.10;99.90
20722;DHT22;10522;52.198;9.890;2023-02-28T11:34:31;6.00;99.90
20722;DHT22;10522;52.198;9.890;2023-02-28T11:36:59;5.20;99.90
20722;DHT22;10522;52.198;9.890;2023-02-28T11:39:26;5.00;99.90
20722;DHT22;10522;52.198;9.890;2023-02-28T11:45:04;4.70;99.90
20722;DHT22;10522;52.198;9.890;2023-02-28T11:47:38;4.60;99.90
20722;DHT22;10522;52.198;9.890;2023-02-28T11:56:06;5.30;99.90
20722;DHT22;10522;52.198;9.890;2023-02-28T11:58:37;5.20;99.90
20722;DHT22;10522;52.198;9.890;2023-02-28T12:01:28;5.80;99.90
20722;DHT22;10522;52.198;9.890;2023-02-28T12:04:12;6.30;99.90
20722;DHT22;10522;52.198;9.890;2023-02-28T12:17:35;6.50;99.90
20722;DHT22;10522;52.198;9.890;2023-02-28T12:28:12;6.50;99.90
20722;DHT22;10522;52.198;9.890;2023-02-28T12:30:48;6.70;99.90
20722;DHT22;10522;52.198;9.890;2023-02-28T12:33:17;6.80;99.90
20722;DHT22;10522;52.198;9.890;2023-02-28T12:35:55;6.30;99.90
20722;DHT22;10522;52.198;9.890;2023-02-28T12:38:28;6.40;99.90
20722;DHT22;10522;52.198;9.890;2023-02-28T12:41:02;6.60;99.90
20722;DHT22;10522;52.198;9.890;2023-02-28T12:43:38;6.60;99.90
20722;DHT22;10522;52.198;9.890;2023-02-28T12:46:19;6.90;99.90
20722;DHT22;10522;52.198;9.890;2023-02-28T12:48:52;6.90;99.90
20722;DHT22;10522;52.198;9.890;2023-02-28T12:51:21;6.20;99.90
20722;DHT22;10522;52.198;9.890;2023-02-28T12:56:56;6.80;99.90
20722;DHT22;10522;52.198;9.890;2023-02-28T12:59:26;6.80;99.90
20722;DHT22;10522;52.198;9.890;2023-02-28T13:10:08;6.00;99.90
20722;DHT22;10522;52.198;9.890;2023-02-28T13:12:35;5.70;99.90
20722;DHT22;10522;52.198;9.890;2023-02-28T13:15:27;5.40;99.90
20722;DHT22;10522;52.198;9.890;2023-02-28T13:17:56;5.00;99.90
20722;DHT22;10522;52.198;9.890;2023-02-28T13:20:35;5.00;99.90
20722;DHT22;10522;52.198;9.890;2023-02-28T13:23:01;5.10;99.90
20722;DHT22;10522;52.198;9.890;2023-02-28T13:28:01;4.80;99.90
20722;DHT22;10522;52.198;9.890;2023-02-28T13:33:36;4.90;99.90
20722;DHT22;10522;52.198;9.890;2023-02-28T13:38:45;5.60;99.90
20722;DHT22;10522;52.198;9.890;2023-02-28T13:44:15;5.80;99.90
20722;DHT22;10522;52.198;9.890;2023-02-28T13:49:27;6.10;99.90
20722;DHT22;10522;52.198;9.890;2023-02-28T14:00:28;6.00;99.90
20722;DHT22;10522;52.198;9.890;2023-02-28T14:06:14;6.20;99.90
20722;DHT22;10522;52.198;9.890;2023-02-28T14:11:33;6.20;99.90
20722;DHT22;10522;52.198;9.890;2023-02-28T14:14:00;6.40;99.90
20722;DHT22;10522;52.198;9.890;2023-02-28T14:16:28;6.10;99.90
20722;DHT22;10522;52.198;9.890;2023-02-28T14:19:32;6.40;99.90
20722;DHT22;10522;52.198;9.890;2023-02-28T14:22:41;6.30;99.90
20722;DHT22;10522;52.198;9.890;2023-02-28T14:30:52;6.00;99.90
20722;DHT22;10522;52.198;9.890;2023-02-28T14:36:42;6.20;99.90
20722;DHT22;10522;52.198;9.890;2023-02-28T14:39:25;6.30;99.90
20722;DHT22;10522;52.198;9.890;2023-02-28T14:41:57;6.30;99.90
20722;DHT22;10522;52.198;9.890;2023-02-28T14:44:36;6.50;99.90
20722;DHT22;10522;52.198;9.890;2023-02-28T14:47:03;6.40;99.90
20722;DHT22;10522;52.198;9.890;2023-02-28T14:57:30;6.00;99.90
20722;DHT22;10522;52.198;9.890;2023-02-28T15:00:14;6.20;99.90
20722;DHT22;10522;52.198;9.890;2023-02-28T15:03:00;6.40;99.90
20722;DHT22;10522;52.198;9.890;2023-02-28T15:05:34;6.10;99.90
20722;DHT22;10522;52.198;9.890;2023-02-28T15:08:15;5.90;99.90
20722;DHT22;10522;52.198;9.890;2023-02-28T15:10:43;6.00;99.90
20722;DHT22;10522;52.198;9.890;2023-02-28T15:13:14;6.20;99.90
20722;DHT22;10522;52.198;9.890;2023-02-28T15:15:45;6.10;99.90
20722;DHT22;10522;52.198;9.890;2023-02-28T15:18:20;6.20;99.90
20722;DHT22;10522;52.198;9.890;2023-02-28T15:20:47;6.40;99.90
20722;DHT22;10522;52.198;9.890;2023-02-28T15:23:14;6.70;99.90
20722;DHT22;10522;52.198;9.890;2023-02-28T15:25:41;6.80;99.90
20722;DHT22;10522;52.198;9.890;2023-02-28T15:28:14;6.90;99.90
20722;DHT22;10522;52.198;9.890;2023-02-28T15:30:52;7.10;99.90
20722;DHT22;10522;52.198;9.890;2023-02-28T15:33:24;8.50;99.90
20722;DHT22;10522;52.198;9.890;2023-02-28T15:35:51;9.10;99.90
20722;DHT22;10522;52.198;9.890;2023-02-28T15:38:25;9.20;99.90
20722;DHT22;10522;52.198;9.890;2023-02-28T15:40:56;10.40;99.90
20722;DHT22;10522;52.198;9.890;2023-02-28T15:43:33;11.00;99.90
20722;DHT22;10522;52.198;9.890;2023-02-28T15:46:09;11.60;99.90
20722;DHT22;10522;52.198;9.890;2023-02-28T15:48:53;11.40;99.90
20722;DHT22;10522;52.198;9.890;2023-02-28T15:51:28;11.20;99.90
20722;DHT22;10522;52.198;9.890;2023-02-28T15:54:04;11.20;99.90
20722;DHT22;10522;52.198;9.890;2023-02-28T15:56:32;11.40;99.90
20722;DHT22;10522;52.198;9.890;2023-02-28T15:59:02;10.80;99.90
20722;DHT22;10522;52.198;9.890;2023-02-28T16:01:32;10.20;99.90
20722;DHT22;10522;52.198;9.890;2023-02-28T16:04:05;10.80;99.90
20722;DHT22;10522;52.198;9.890;2023-02-28T16:06:35;10.90;99.90
20722;DHT22;10522;52.198;9.890;2023-02-28T16:09:03;10.00;99.90
20722;DHT22;10522;52.198;9.890;2023-02-28T16:11:30;10.10;99.90
20722;DHT22;10522;52.198;9.890;2023-02-28T16:13:58;10.20;99.90
20722;DHT22;10522;52.198;9.890;2023-02-28T16:16:25;10.40;99.90
20722;DHT22;10522;52.198;9.890;2023-02-28T16:18:51;10.10;99.90
20722;DHT22;10522;52.198;9.890;2023-02-28T16:21:17;9.70;99.90
20722;DHT22;10522;52.198;9.890;2023-02-28T16:23:43;9.70;99.90
20722;DHT22;10522;52.198;9.890;2023-02-28T16:26:22;9.90;99.90
20722;DHT22;10522;52.198;9.890;2023-02-28T16:28:48;9.40;99.90
20722;DHT22;10522;52.198;9.890;2023-02-28T16:31:14;9.10;99.90
20722;DHT22;10522;52.198;9.890;2023-02-28T16:33:42;9.10;99.90
20722;DHT22;10522;52.198;9.890;2023-02-28T16:36:17;8.70;99.90
20722;DHT22;10522;52.198;9.890;2023-02-28T16:38:44;8.20;99.90
20722;DHT22;10522;52.198;9.890;2023-02-28T16:41:14;7.90;99.90
20722;DHT22;10522;52.198;9.890;2023-02-28T16:43:45;7.70;99.90
20722;DHT22;10522;52.198;9.890;2023-02-28T16:46:11;7.40;99.90
20722;DHT22;10522;52.198;9.890;2023-02-28T16:48:38;7.10;99.90
20722;DHT22;10522;52.198;9.890;2023-02-28T16:51:04;6.70;99.90
20722;DHT22;10522;52.198;9.890;2023-02-28T16:53:30;6.20;99.90
20722;DHT22;10522;52.198;9.890;2023-02-28T16:55:56;5.40;99.90
20722;DHT22;10522;52.198;9.890;2023-02-28T16:58:22;4.80;99.90
20722;DHT22;10522;52.198;9.890;2023-02-28T17:00:50;4.30;99.90
20722;DHT22;10522;52.198;9.890;2023-02-28T17:03:26;3.90;99.90
20722;DHT22;10522;52.198;9.890;2023-02-28T17:05:52;3.60;99.90
20722;DHT22;10522;52.198;9.890;2023-02-28T17:08:18;3.30;99.90
20722;DHT22;10522;52.198;9.890;2023-02-28T17:10:43;3.10;99.90
20722;DHT22;10522;52.198;9.890;2023-02-28T17:13:09;2.80;99.90
20722;DHT22;10522;52.198;9.890;2023-02-28T17:15:35;2.50;99.90
20722;DHT22;10522;52.198;9.890;2023-02-28T17:18:02;2.30;99.90
20722;DHT22;10522;52.198;9.890;2023-02-28T17:20:28;2.20;99.90
20722;DHT22;10522;52.198;9.890;2023-02-28T17:22:54;2.00;99.90
20722;DHT22;10522;52.198;9.890;2023-02-28T17:25:20;1.80;99.90
20722;DHT22;10522;52.198;9.890;2023-02-28T17:27:47;1.60;99.90
20722;DHT22;10522;52.198;9.890;2023-02-28T17:30:16;1.50;99.90
20722;DHT22;10522;52.198;9.890;2023-02-28T17:32:43;1.40;99.90
20722;DHT22;10522;52.198;9.890;2023-02-28T17:35:09;1.30;99.90
20722;DHT22;10522;52.198;9.890;2023-02-28T17:37:35;1.10;99.90
20722;DHT22;10522;52.198;9.890;2023-02-28T17:40:01;1.00;99.90
20722;DHT22;10522;52.198;9.890;2023-02-28T17:42:27;0.90;99.90
20722;DHT22;10522;52.198;9.890;2023-02-28T17:44:53;0.80;99.90
20722;DHT22;10522;52.198;9.890;2023-02-28T17:47:19;0.80;99.90
20722;DHT22;10522;52.198;9.890;2023-02-28T17:49:44;0.70;99.90
20722;DHT22;10522;52.198;9.890;2023-02-28T17:52:10;0.70;99.90
20722;DHT22;10522;52.198;9.890;2023-02-28T17:54:35;0.60;99.90
20722;DHT22;10522;52.198;9.890;2023-02-28T17:57:01;0.60;99.90
20722;DHT22;10522;52.198;9.890;2023-02-28T17:59:27;0.60;99.90
20722;DHT22;10522;52.198;9.890;2023-02-28T18:01:59;0.50;99.90
20722;DHT22;10522;52.198;9.890;2023-02-28T18:04:26;0.40;99.90
20722;DHT22;10522;52.198;9.890;2023-02-28T18:06:53;0.40;99.90
20722;DHT22;10522;52.198;9.890;2023-02-28T18:09:22;0.30;99.90
20722;DHT22;10522;52.198;9.890;2023-02-28T18:11:50;0.30;99.90
20722;DHT22;10522;52.198;9.890;2023-02-28T18:14:16;0.20;99.90
20722;DHT22;10522;52.198;9.890;2023-02-28T18:16:43;0.20;99.90
20722;DHT22;10522;52.198;9.890;2023-02-28T18:19:09;0.20;99.90